Reno, NV (89501)

6:52 AM PST on December 28, 2014 (GMT -0800)
UNR Campus, LMR Roof | Change Station
CLOSE
Current Station
Personal Weather Station
Location: Reno, NV
Elevation: 4570 ft
Nearby Weather Stations

Elev 4570 ft 39.54 °N, 119.81 °W | Updated 49 seconds ago

Mostly Cloudy
Mostly Cloudy
27.0 °F
Feels Like 27 °F
N
2.1
Wind Variable Wind from NW
Gusts 0.0 mph

Today
High -- | Low -- °F
--% Chance of Precip.
Yesterday
High -- | Low -- °F
Precip. -- in
7:18 AM 4:43 PM
Waxing Crescent, 48% visible
Pressure 30.27 in
Visibility 10.0 miles
Clouds Few 6500 ft
Scattered Clouds 8000 ft
Mostly Cloudy 15000 ft
Mostly Cloudy 20000 ft
Windchill 27 °F
Dew Point 21 °F
Humidity 78%
Rainfall 0.00 in
Snow Depth Not available.
UV 0 out of 12
Pollen .30 out of 12
Air Quality Not available.
Flu Activity Not available.
METAR KRNO 281355Z 00000KT 10SM FEW065 SCT080 BKN150 BKN200 M03/M07 A3022 RMK AO2 SLP249 T10331067

More Conditions Fewer Conditions

Pressure 30.27 in
Visibility 10.0 miles
Clouds Few 6500 ft
Scattered Clouds 8000 ft
Mostly Cloudy 15000 ft
Mostly Cloudy 20000 ft
Windchill 27 °F
Dew Point 21 °F
Humidity 78%
Rainfall 0.00 in
Snow Depth Not available.
UV 0 out of 12
Pollen .30 out of 12
Air Quality Not available.
Flu Activity Not available.
METAR KRNO 281355Z 00000KT 10SM FEW065 SCT080 BKN150 BKN200 M03/M07 A3022 RMK AO2 SLP249 T10331067

More Conditions Fewer Conditions

10-Day Weather Forecast

Almanac

Astronomy

Dec. 28, 2014 Rise Set
Actual Time
Civil Twilight
Nautical Twilight
Astronomical Twilight
Moon
Length of Visible Light
Length of Day
Tomorrow will be .
, % of the Moon is Illuminated

Today's Extremes

State Highs State Lows

Community

WunderPhotos

Upload Photos

1,781,274 photos uploaded!

WunderBlogs® & News

Nearby

Air Quality

  Air Quality AQ Index Pollutant
Not available.

Snow Depth

Station Depth Elevation

Earthquake Activity

City Distance Mag. Time & Date
Minimum magnitude displayed is 2.5.

Coastal Water Temperatures

Place Temperature

Nearby Weather Stations